createdAt,value
2018-11-06T00:00:22.496Z,67.10
2018-11-06T00:02:57.008Z,64.43
2018-11-06T00:05:26.268Z,59.90
2018-11-06T00:07:55.520Z,66.57
2018-11-06T00:10:24.828Z,57.63
2018-11-06T00:12:54.421Z,61.50
2018-11-06T00:15:23.925Z,64.63
2018-11-06T00:17:53.416Z,61.43
2018-11-06T00:20:22.920Z,67.23
2018-11-06T00:22:52.416Z,63.93
2018-11-06T00:25:21.945Z,68.43
2018-11-06T00:27:51.444Z,58.73
2018-11-06T00:30:20.944Z,62.87
2018-11-06T00:32:50.472Z,58.03
2018-11-06T00:35:19.976Z,61.00
2018-11-06T00:37:49.476Z,63.50
2018-11-06T00:40:18.992Z,58.43
2018-11-06T00:42:48.597Z,52.20
2018-11-06T00:45:18.108Z,56.77
2018-11-06T00:47:47.645Z,56.40
2018-11-06T00:50:17.140Z,51.43
2018-11-06T00:52:46.644Z,53.07
2018-11-06T00:55:16.181Z,60.67
2018-11-06T00:57:45.668Z,53.13
2018-11-06T01:00:17.508Z,51.33
2018-11-06T01:02:47.616Z,59.37
2018-11-06T01:05:17.866Z,49.93
2018-11-06T01:07:48.265Z,57.67
2018-11-06T01:10:17.828Z,55.73
2018-11-06T01:12:47.339Z,54.77
2018-11-06T01:15:17.136Z,50.07
2018-11-06T01:17:47.225Z,60.47
2018-11-06T01:20:17.973Z,57.90
2018-11-06T01:22:47.840Z,50.93
2018-11-06T01:25:17.513Z,61.53
2018-11-06T01:27:47.016Z,55.57
2018-11-06T01:30:18.448Z,62.40
2018-11-06T01:32:48.344Z,57.17
2018-11-06T01:35:18.185Z,51.90
2018-11-06T01:37:47.735Z,54.10
2018-11-06T01:40:18.428Z,53.80
2018-11-06T01:42:48.347Z,60.73
2018-11-06T01:45:18.364Z,51.80
2018-11-06T01:47:47.860Z,53.87
2018-11-06T01:50:18.198Z,49.87
2018-11-06T01:52:48.384Z,52.80
2018-11-06T01:55:17.894Z,50.30
2018-11-06T01:57:47.428Z,56.43
2018-11-06T02:00:18.232Z,53.40
2018-11-06T02:02:47.884Z,50.80
2018-11-06T02:05:18.268Z,52.43
2018-11-06T02:07:49.044Z,51.60
2018-11-06T02:10:18.817Z,54.87
2018-11-06T02:12:48.528Z,52.23
2018-11-06T02:15:18.092Z,49.43
2018-11-06T02:17:47.616Z,58.17
2018-11-06T02:20:17.460Z,48.03
2018-11-06T02:22:47.422Z,52.27
2018-11-06T02:25:16.927Z,54.30
2018-11-06T02:27:46.784Z,56.83
2018-11-06T02:30:17.461Z,48.53
2018-11-06T02:32:47.553Z,48.93
2018-11-06T02:35:17.133Z,53.77
2018-11-06T02:37:46.620Z,55.97
2018-11-06T02:40:16.784Z,50.17
2018-11-06T02:42:46.313Z,48.73
2018-11-06T02:45:15.816Z,48.63
2018-11-06T02:47:45.308Z,47.63
2018-11-06T02:50:15.259Z,56.20
2018-11-06T02:52:45.313Z,47.40
2018-11-06T02:55:14.804Z,45.83
2018-11-06T02:57:44.335Z,48.67
2018-11-06T03:00:17.212Z,45.63
2018-11-06T03:02:47.500Z,42.27
2018-11-06T03:05:17.012Z,43.50
2018-11-06T03:07:46.251Z,42.83
2018-11-06T03:10:16.080Z,42.50
2018-11-06T03:12:45.996Z,46.17
2018-11-06T03:15:16.160Z,39.27
2018-11-06T03:17:45.657Z,39.03
2018-11-06T03:20:15.267Z,38.97
2018-11-06T03:22:45.276Z,35.80
2018-11-06T03:25:14.772Z,39.50
2018-11-06T03:27:43.957Z,40.33
2018-11-06T03:30:15.445Z,38.67
2018-11-06T03:32:45.114Z,37.37
2018-11-06T03:35:15.381Z,38.20
2018-11-06T03:37:44.520Z,33.43
2018-11-06T03:40:14.149Z,41.40
2018-11-06T03:42:44.308Z,37.97
2018-11-06T03:45:14.204Z,35.93
2018-11-06T03:47:43.709Z,39.47
2018-11-06T03:50:13.644Z,38.63
2018-11-06T03:52:43.146Z,31.30
2018-11-06T03:55:12.652Z,35.53
2018-11-06T03:57:42.200Z,34.13
2018-11-06T04:00:15.699Z,33.03
2018-11-06T04:02:45.080Z,30.37
2018-11-06T04:05:14.531Z,28.57
2018-11-06T04:07:44.376Z,28.27
2018-11-06T04:10:14.188Z,29.90
2018-11-06T04:12:43.744Z,30.57
2018-11-06T04:15:14.140Z,30.63
2018-11-06T04:17:44.423Z,31.33
2018-11-06T04:20:13.905Z,30.07
2018-11-06T04:22:43.504Z,31.00
2018-11-06T04:25:13.000Z,34.47
2018-11-06T04:27:42.528Z,33.73
2018-11-06T04:30:13.516Z,27.27
2018-11-06T04:32:43.889Z,33.57
2018-11-06T04:35:13.940Z,24.63
2018-11-06T04:37:43.490Z,25.07
2018-11-06T04:40:14.212Z,28.97
2018-11-06T04:42:43.899Z,27.20
2018-11-06T04:45:13.800Z,26.27
2018-11-06T04:47:43.645Z,25.43
2018-11-06T04:50:13.701Z,24.37
2018-11-06T04:52:43.216Z,31.50
2018-11-06T04:55:13.355Z,30.17
2018-11-06T04:57:43.411Z,27.90
2018-11-06T05:00:14.003Z,34.30
2018-11-06T05:02:44.056Z,26.33
2018-11-06T05:05:14.152Z,26.13
2018-11-06T05:07:43.667Z,26.77
2018-11-06T05:10:14.425Z,27.53
2018-11-06T05:12:44.312Z,26.60
2018-11-06T05:15:15.272Z,26.77
2018-11-06T05:17:44.829Z,27.33
2018-11-06T05:20:16.032Z,27.10
2018-11-06T05:22:46.423Z,28.17
2018-11-06T05:25:16.629Z,31.20
2018-11-06T05:27:46.292Z,24.27
2018-11-06T05:30:15.805Z,26.83
2018-11-06T05:32:45.482Z,24.67
2018-11-06T05:35:15.142Z,26.40
2018-11-06T05:37:44.676Z,26.87
2018-11-06T05:40:25.489Z,25.20
2018-11-06T05:42:55.003Z,28.73
2018-11-06T05:45:24.523Z,27.90
2018-11-06T05:47:54.256Z,27.33
2018-11-06T05:50:23.772Z,22.63
2018-11-06T05:52:53.266Z,24.77
2018-11-06T05:55:22.812Z,28.30
2018-11-06T05:57:52.300Z,27.50
2018-11-06T06:00:21.826Z,26.97
2018-11-06T06:02:51.539Z,21.47
2018-11-06T06:05:21.040Z,24.77
2018-11-06T06:07:50.540Z,21.03
2018-11-06T06:10:20.040Z,22.50
2018-11-06T06:12:49.596Z,22.03
2018-11-06T06:15:19.129Z,27.37
2018-11-06T06:17:48.280Z,30.40
2018-11-06T06:20:17.770Z,25.93
2018-11-06T06:22:47.272Z,26.43
2018-11-06T06:25:16.784Z,27.60
2018-11-06T06:27:46.313Z,28.57
2018-11-06T06:30:16.645Z,24.63
2018-11-06T06:32:46.157Z,26.17
2018-11-06T06:35:15.787Z,25.07
2018-11-06T06:37:45.484Z,24.20
2018-11-06T06:40:16.104Z,24.57
2018-11-06T06:42:46.199Z,27.37
2018-11-06T06:45:17.068Z,22.57
2018-11-06T06:47:46.317Z,24.57
2018-11-06T06:50:18.093Z,22.40
2018-11-06T06:52:48.602Z,23.50
2018-11-06T06:55:18.603Z,18.70
2018-11-06T06:57:48.966Z,21.90
2018-11-06T07:00:19.805Z,22.30
2018-11-06T07:02:49.003Z,20.60
2018-11-06T07:05:19.912Z,23.53
2018-11-06T07:07:49.096Z,18.67
2018-11-06T07:10:19.873Z,18.43
2018-11-06T07:12:49.429Z,16.40
2018-11-06T07:15:20.208Z,20.37
2018-11-06T07:17:50.464Z,24.37
2018-11-06T07:20:21.420Z,21.77
2018-11-06T07:22:50.936Z,20.13
2018-11-06T07:25:20.483Z,20.87
2018-11-06T07:27:49.666Z,21.50
2018-11-06T07:30:21.244Z,17.43
2018-11-06T07:32:50.829Z,18.30
2018-11-06T07:35:20.612Z,18.40
2018-11-06T07:37:49.973Z,18.77
2018-11-06T07:40:20.277Z,25.37
2018-11-06T07:42:49.611Z,18.40
2018-11-06T07:45:20.562Z,21.37
2018-11-06T07:47:49.709Z,24.30
2018-11-06T07:50:19.222Z,28.80
2018-11-06T07:52:48.960Z,25.13
2018-11-06T07:55:19.293Z,22.17
2018-11-06T07:57:48.880Z,18.50
2018-11-06T08:00:25.050Z,20.47
2018-11-06T08:02:54.325Z,30.97
2018-11-06T08:05:23.832Z,27.23
2018-11-06T08:07:53.460Z,20.40
2018-11-06T08:10:23.540Z,23.30
2018-11-06T08:12:54.144Z,20.02
2018-11-06T08:15:23.660Z,19.13
2018-11-06T08:17:53.740Z,17.42
2018-11-06T08:20:23.828Z,16.02
2018-11-06T08:22:54.097Z,20.77
2018-11-06T08:25:24.170Z,14.65
2018-11-06T08:27:54.412Z,17.95
2018-11-06T08:30:24.606Z,18.73
2018-11-06T08:32:54.895Z,17.70
2018-11-06T08:35:25.153Z,19.92
2018-11-06T08:37:55.233Z,15.53
2018-11-06T08:40:25.341Z,18.05
2018-11-06T08:42:55.405Z,17.45
2018-11-06T08:45:25.501Z,18.05
2018-11-06T08:47:55.581Z,15.63
2018-11-06T08:50:26.005Z,14.28
2018-11-06T08:52:56.088Z,15.85
2018-11-06T08:55:26.172Z,18.50
2018-11-06T08:57:56.284Z,19.77
2018-11-06T09:00:26.368Z,15.95
2018-11-06T09:02:56.469Z,17.48
2018-11-06T09:05:26.553Z,16.20
2018-11-06T09:07:56.624Z,18.00
2018-11-06T09:10:26.704Z,16.23
2018-11-06T09:12:56.797Z,16.50
2018-11-06T09:15:26.872Z,20.62
2018-11-06T09:17:56.985Z,15.58
2018-11-06T09:20:27.057Z,17.52
2018-11-06T09:22:57.144Z,18.60
2018-11-06T09:25:27.220Z,16.05
2018-11-06T09:27:57.280Z,18.73
2018-11-06T09:30:27.370Z,18.77
2018-11-06T09:32:57.476Z,14.83
2018-11-06T09:35:27.549Z,16.85
2018-11-06T09:37:57.639Z,16.67
2018-11-06T09:42:57.797Z,16.50
2018-11-06T09:45:27.953Z,16.77
2018-11-06T09:47:58.204Z,16.45
2018-11-06T09:50:28.328Z,14.55
2018-11-06T09:52:58.405Z,19.12
2018-11-06T09:55:28.516Z,17.10
2018-11-06T09:57:58.604Z,18.67
2018-11-06T10:00:28.689Z,14.55
2018-11-06T10:02:58.758Z,19.32
2018-11-06T10:05:28.872Z,20.57
2018-11-06T10:07:58.962Z,14.75
2018-11-06T10:10:29.440Z,15.03
2018-11-06T10:12:59.512Z,15.00
2018-11-06T10:15:29.720Z,15.63
2018-11-06T10:17:59.902Z,16.62
2018-11-06T10:20:30.016Z,14.68
2018-11-06T10:23:00.116Z,16.73
2018-11-06T10:25:30.212Z,17.90
2018-11-06T10:28:00.292Z,14.38
2018-11-06T10:30:30.389Z,15.23
2018-11-06T10:33:00.505Z,15.45
2018-11-06T10:35:30.609Z,14.18
2018-11-06T10:38:00.731Z,13.70
2018-11-06T10:40:31.007Z,12.35
2018-11-06T10:43:01.084Z,14.63
2018-11-06T10:45:31.173Z,12.18
2018-11-06T10:48:01.257Z,14.73
2018-11-06T10:50:31.320Z,12.45
2018-11-06T10:53:01.397Z,14.15
2018-11-06T10:55:31.476Z,14.78
2018-11-06T10:58:01.573Z,15.15
2018-11-06T11:00:37.005Z,13.85
2018-11-06T11:03:12.480Z,11.95
2018-11-06T11:05:42.576Z,16.30
2018-11-06T11:08:12.661Z,14.73
2018-11-06T11:10:42.386Z,13.90
2018-11-06T11:13:12.405Z,16.40
2018-11-06T11:15:42.713Z,16.17
2018-11-06T11:18:12.808Z,13.25
2018-11-06T11:20:42.873Z,13.43
2018-11-06T11:23:12.940Z,11.50
2018-11-06T11:25:43.143Z,13.43
2018-11-06T11:28:13.334Z,14.30
2018-11-06T11:30:43.401Z,11.15
2018-11-06T11:33:13.469Z,14.80
2018-11-06T11:35:43.597Z,15.20
2018-11-06T11:38:13.404Z,16.47
2018-11-06T11:40:43.596Z,13.67
2018-11-06T11:43:13.100Z,16.40
2018-11-06T11:45:42.645Z,21.30
2018-11-06T11:48:12.356Z,17.70
2018-11-06T11:50:41.504Z,18.10
2018-11-06T11:53:10.923Z,13.57
2018-11-06T11:55:40.476Z,16.23
2018-11-06T11:58:09.981Z,15.30
2018-11-06T12:00:40.358Z,16.60
2018-11-06T12:03:09.868Z,14.93
2018-11-06T12:05:39.024Z,18.77
2018-11-06T12:08:08.468Z,14.93
2018-11-06T12:10:37.976Z,13.97
2018-11-06T12:13:07.476Z,15.50
2018-11-06T12:15:37.032Z,14.67
2018-11-06T12:18:06.623Z,15.27
2018-11-06T12:20:36.285Z,14.80
2018-11-06T12:23:06.072Z,19.13
2018-11-06T12:25:35.678Z,17.87
2018-11-06T12:28:05.528Z,17.17
2018-11-06T12:30:35.068Z,14.60
2018-11-06T12:33:04.840Z,15.80
2018-11-06T12:35:34.352Z,15.67
2018-11-06T12:38:03.909Z,15.30
2018-11-06T12:40:33.412Z,19.83
2018-11-06T12:43:02.917Z,16.83
2018-11-06T12:45:32.621Z,18.97
2018-11-06T12:48:02.105Z,16.53
2018-11-06T12:50:31.592Z,18.33
2018-11-06T12:53:01.117Z,18.17
2018-11-06T12:55:30.604Z,12.90
2018-11-06T12:58:00.097Z,20.27
2018-11-06T13:00:29.585Z,17.97
2018-11-06T13:02:59.112Z,20.50
2018-11-06T13:05:28.656Z,19.77
2018-11-06T13:07:57.779Z,16.07
2018-11-06T13:10:27.192Z,16.97
2018-11-06T13:12:56.732Z,14.83
2018-11-06T13:15:26.258Z,15.27
2018-11-06T13:17:55.945Z,12.67
2018-11-06T13:20:25.416Z,13.40
2018-11-06T13:22:54.900Z,17.57
2018-11-06T13:25:24.427Z,20.07
2018-11-06T13:27:54.092Z,16.20
2018-11-06T13:30:23.633Z,15.40
2018-11-06T13:32:53.106Z,15.33
2018-11-06T13:35:22.600Z,20.10
2018-11-06T13:37:52.135Z,20.30
2018-11-06T13:40:21.630Z,17.07
2018-11-06T13:42:51.310Z,17.03
2018-11-06T13:45:22.679Z,14.37
2018-11-06T13:47:52.229Z,19.80
2018-11-06T13:50:21.751Z,18.60
2018-11-06T13:52:51.339Z,21.90
2018-11-06T13:55:20.820Z,19.87
2018-11-06T13:57:50.304Z,24.33
2018-11-06T14:00:21.006Z,18.63
2018-11-06T14:02:50.538Z,18.27
2018-11-06T14:05:20.029Z,15.47
2018-11-06T14:07:49.531Z,19.80
2018-11-06T14:10:19.036Z,25.03
2018-11-06T14:12:48.552Z,17.43
2018-11-06T14:15:18.047Z,16.67
2018-11-06T14:17:47.236Z,19.90
2018-11-06T14:20:17.052Z,16.07
2018-11-06T14:22:46.760Z,16.37
2018-11-06T14:25:16.276Z,16.40
2018-11-06T14:27:45.780Z,17.27
2018-11-06T14:30:17.333Z,16.97
2018-11-06T14:32:47.234Z,17.57
2018-11-06T14:35:17.812Z,16.23
2018-11-06T14:37:47.442Z,16.87
2018-11-06T14:40:17.224Z,24.83
2018-11-06T14:42:47.108Z,25.60
2018-11-06T14:45:18.171Z,38.60
2018-11-06T14:47:47.571Z,35.97
2018-11-06T14:50:17.144Z,33.57
2018-11-06T14:52:46.657Z,78.27
2018-11-06T14:55:16.991Z,74.83
2018-11-06T14:57:46.519Z,40.00
2018-11-06T15:00:17.344Z,28.53
2018-11-06T15:02:47.867Z,25.27
2018-11-06T15:05:18.111Z,34.10
2018-11-06T15:07:47.452Z,30.57
2018-11-06T15:10:16.956Z,27.17
2018-11-06T15:12:46.710Z,23.87
2018-11-06T15:15:16.822Z,41.67
2018-11-06T15:17:47.135Z,44.10
2018-11-06T15:20:23.244Z,28.90
2018-11-06T15:22:52.720Z,33.23
2018-11-06T15:25:22.263Z,35.07
2018-11-06T15:27:51.736Z,34.17
2018-11-06T15:30:21.251Z,36.93
2018-11-06T15:32:50.800Z,26.43
2018-11-06T15:35:21.164Z,27.23
2018-11-06T15:37:50.720Z,25.07
2018-11-06T15:40:21.168Z,31.37
2018-11-06T15:42:50.672Z,24.07
2018-11-06T15:45:20.536Z,26.20
2018-11-06T15:47:50.272Z,33.00
2018-11-06T15:50:20.728Z,32.43
2018-11-06T15:52:50.995Z,34.50
2018-11-06T15:55:20.848Z,28.90
2018-11-06T15:57:50.348Z,30.30
2018-11-06T16:00:22.459Z,28.00
2018-11-06T16:02:52.057Z,22.77
2018-11-06T16:05:21.911Z,30.77
2018-11-06T16:07:51.528Z,42.77
2018-11-06T16:10:22.347Z,68.60
2018-11-06T16:12:51.883Z,81.00
2018-11-06T16:15:21.486Z,59.03
2018-11-06T16:17:51.129Z,53.47
2018-11-06T16:20:21.317Z,59.30
2018-11-06T16:22:50.623Z,58.07
2018-11-06T16:25:20.577Z,70.93
2018-11-06T16:27:49.835Z,59.50
2018-11-06T16:30:20.764Z,44.60
2018-11-06T16:32:50.343Z,38.67
2018-11-06T16:35:21.289Z,38.33
2018-11-06T16:37:50.837Z,45.50
2018-11-06T16:40:20.605Z,38.00
2018-11-06T16:42:50.172Z,67.17
2018-11-06T16:45:21.119Z,38.53
2018-11-06T16:47:51.516Z,41.07
2018-11-06T16:50:21.025Z,36.50
2018-11-06T16:52:50.555Z,38.73
2018-11-06T16:55:20.523Z,33.33
2018-11-06T16:57:50.055Z,32.97
2018-11-06T17:00:21.338Z,35.13
2018-11-06T17:02:51.316Z,33.30
2018-11-06T17:05:20.821Z,35.27
2018-11-06T17:07:50.596Z,46.70
2018-11-06T17:10:20.517Z,60.83
2018-11-06T17:12:50.005Z,52.30
2018-11-06T17:15:21.816Z,43.73
2018-11-06T17:17:52.408Z,31.83
2018-11-06T17:20:22.443Z,30.30
2018-11-06T17:22:52.079Z,29.73
2018-11-06T17:25:22.420Z,26.80
2018-11-06T17:27:51.915Z,36.70
2018-11-06T17:30:21.098Z,35.13
2018-11-06T17:32:50.572Z,31.13
2018-11-06T17:35:20.792Z,28.07
2018-11-06T17:37:50.280Z,27.27
2018-11-06T17:40:20.855Z,28.90
2018-11-06T17:42:50.395Z,30.40
2018-11-06T17:45:21.358Z,34.77
2018-11-06T17:47:50.988Z,31.97
2018-11-06T17:50:20.504Z,31.13
2018-11-06T17:52:49.683Z,34.10
2018-11-06T17:55:20.203Z,37.70
2018-11-06T17:57:49.443Z,33.23
2018-11-06T18:00:22.644Z,38.10
2018-11-06T18:02:52.570Z,31.83
2018-11-06T18:05:23.980Z,30.87
2018-11-06T18:07:53.520Z,37.60
2018-11-06T18:10:23.076Z,42.07
2018-11-06T18:13:07.412Z,34.20
2018-11-06T18:15:36.953Z,31.20
2018-11-06T18:18:06.603Z,33.47
2018-11-06T18:20:36.264Z,29.80
2018-11-06T18:23:05.820Z,35.00
2018-11-06T18:25:35.430Z,40.70
2018-11-06T18:28:05.243Z,40.80
2018-11-06T18:30:34.648Z,35.73
2018-11-06T18:33:04.152Z,32.30
2018-11-06T18:35:33.483Z,39.80
2018-11-06T18:38:02.929Z,35.37
2018-11-06T18:40:32.446Z,31.70
2018-11-06T18:43:01.940Z,35.57
2018-11-06T18:45:31.449Z,35.10
2018-11-06T18:48:00.968Z,36.63
2018-11-06T18:50:30.536Z,42.80
2018-11-06T18:52:59.920Z,35.77
2018-11-06T18:55:29.343Z,38.73
2018-11-06T18:57:58.881Z,36.17
2018-11-06T19:00:28.232Z,33.03
2018-11-06T19:02:57.673Z,49.77
2018-11-06T19:05:27.148Z,48.67
2018-11-06T19:07:56.701Z,38.03
2018-11-06T19:10:26.202Z,36.20
2018-11-06T19:12:55.691Z,38.00
2018-11-06T19:15:25.723Z,40.30
2018-11-06T19:17:55.215Z,35.37
2018-11-06T19:20:24.723Z,41.93
2018-11-06T19:22:53.927Z,40.50
2018-11-06T19:25:23.325Z,38.80
2018-11-06T19:27:52.835Z,31.33
2018-11-06T19:30:22.016Z,37.17
2018-11-06T19:32:51.223Z,32.50
2018-11-06T19:35:20.664Z,37.13
2018-11-06T19:37:51.580Z,34.10
2018-11-06T19:40:20.963Z,45.27
2018-11-06T19:42:50.412Z,55.97
2018-11-06T19:45:19.901Z,40.07
2018-11-06T19:47:49.400Z,31.03
2018-11-06T19:50:19.760Z,32.17
2018-11-06T19:52:49.309Z,35.10
2018-11-06T19:55:19.078Z,31.97
2018-11-06T19:57:48.864Z,41.33
2018-11-06T20:00:19.760Z,38.50
2018-11-06T20:02:50.922Z,37.33
2018-11-06T20:05:20.908Z,37.57
2018-11-06T20:07:51.810Z,43.93
2018-11-06T20:10:22.672Z,33.80
2018-11-06T20:12:52.974Z,37.10
2018-11-06T20:15:22.564Z,31.07
2018-11-06T20:17:51.616Z,32.57
2018-11-06T20:20:23.744Z,37.07
2018-11-06T20:22:53.315Z,35.83
2018-11-06T20:25:22.848Z,36.00
2018-11-06T20:27:52.023Z,37.37
2018-11-06T20:30:22.784Z,39.60
2018-11-06T20:32:51.899Z,37.83
2018-11-06T20:35:21.393Z,33.03
2018-11-06T20:37:51.184Z,37.40
2018-11-06T20:40:22.062Z,36.47
2018-11-06T20:42:51.674Z,37.30
2018-11-06T20:45:21.381Z,39.73
2018-11-06T20:47:50.784Z,38.30
2018-11-06T20:50:21.839Z,40.10
2018-11-06T20:52:51.363Z,41.37
2018-11-06T20:55:21.129Z,39.00
2018-11-06T20:57:50.483Z,40.60
2018-11-06T21:00:25.220Z,44.10
2018-11-06T21:02:55.311Z,39.33
2018-11-06T21:05:24.488Z,35.97
2018-11-06T21:07:53.937Z,34.73
2018-11-06T21:10:24.888Z,33.73
2018-11-06T21:12:54.366Z,41.27
2018-11-06T21:15:23.874Z,41.73
2018-11-06T21:17:53.132Z,31.60
2018-11-06T21:20:22.760Z,32.30
2018-11-06T21:22:52.511Z,32.80
2018-11-06T21:25:22.057Z,38.57
2018-11-06T21:27:52.788Z,34.87
2018-11-06T21:30:22.701Z,34.77
2018-11-06T21:32:59.544Z,36.33
2018-11-06T21:35:30.205Z,38.33
2018-11-06T21:38:00.586Z,35.73
2018-11-06T21:40:30.643Z,36.30
2018-11-06T21:42:59.760Z,34.87
2018-11-06T21:45:30.971Z,35.47
2018-11-06T21:48:00.286Z,35.17
2018-11-06T21:50:29.680Z,35.17
2018-11-06T21:52:59.135Z,33.63
2018-11-06T21:55:28.736Z,38.40
2018-11-06T21:57:58.224Z,33.67
2018-11-06T22:00:27.820Z,36.77
2018-11-06T22:02:57.432Z,35.83
2018-11-06T22:05:26.931Z,35.57
2018-11-06T22:07:56.541Z,39.93
2018-11-06T22:10:25.431Z,38.50
2018-11-06T22:12:54.867Z,40.43
2018-11-06T22:15:24.516Z,36.57
2018-11-06T22:17:53.671Z,39.67
2018-11-06T22:20:22.731Z,35.17
2018-11-06T22:22:52.160Z,36.60
2018-11-06T22:25:22.773Z,37.77
2018-11-06T22:27:54.986Z,41.40
2018-11-06T22:30:24.548Z,37.03
2018-11-06T22:32:56.294Z,35.70
2018-11-06T22:35:25.972Z,36.50
2018-11-06T22:37:55.452Z,43.83
2018-11-06T22:40:25.184Z,41.20
2018-11-06T22:42:59.102Z,36.67
2018-11-06T22:45:29.316Z,39.50
2018-11-06T22:47:58.820Z,34.70
2018-11-06T22:50:28.305Z,35.80
2018-11-06T22:52:57.872Z,42.70
2018-11-06T22:55:27.363Z,44.03
2018-11-06T22:57:56.893Z,40.00
2018-11-06T23:00:31.844Z,38.07
2018-11-06T23:03:18.020Z,38.63
2018-11-06T23:05:53.000Z,39.50
2018-11-06T23:08:26.489Z,37.67
2018-11-06T23:10:56.290Z,34.90
2018-11-06T23:13:25.800Z,38.47
2018-11-06T23:15:54.963Z,38.33
2018-11-06T23:18:24.364Z,44.50
2018-11-06T23:20:53.892Z,38.07
2018-11-06T23:23:23.407Z,36.97
2018-11-06T23:25:53.123Z,36.43
2018-11-06T23:28:22.650Z,37.97
2018-11-06T23:30:52.160Z,37.70
2018-11-06T23:33:21.668Z,38.50
2018-11-06T23:35:51.293Z,35.47
2018-11-06T23:38:20.883Z,37.63
2018-11-06T23:40:50.407Z,35.93
2018-11-06T23:43:19.928Z,37.90
2018-11-06T23:45:49.424Z,39.60
2018-11-06T23:48:18.631Z,34.73
2018-11-06T23:50:48.058Z,34.40
2018-11-06T23:53:17.570Z,34.37
2018-11-06T23:55:47.061Z,34.90
2018-11-06T23:58:16.604Z,35.50
